sensor_id;sensor_type;location;lat;lon;timestamp;pressure;altitude;pressure_sealevel;temperature;humidity
76794;BME280;65745;50.278;18.192;2023-06-10T00:01:49;99462.23;;;16.16;85.98
76794;BME280;65745;50.278;18.192;2023-06-10T00:04:22;99463.77;;;16.16;85.91
76794;BME280;65745;50.278;18.192;2023-06-10T00:06:54;99458.55;;;16.19;85.87
76794;BME280;65745;50.278;18.192;2023-06-10T00:09:28;99462.02;;;16.18;85.90
76794;BME280;65745;50.278;18.192;2023-06-10T00:12:00;99460.98;;;16.20;85.95
76794;BME280;65745;50.278;18.192;2023-06-10T00:14:32;99459.09;;;16.16;85.90
76794;BME280;65745;50.278;18.192;2023-06-10T00:17:05;99461.39;;;16.12;86.50
76794;BME280;65745;50.278;18.192;2023-06-10T00:19:40;99460.89;;;16.10;86.65
76794;BME280;65745;50.278;18.192;2023-06-10T00:22:13;99463.34;;;16.09;86.35
76794;BME280;65745;50.278;18.192;2023-06-10T00:24:45;99468.73;;;16.06;86.12
76794;BME280;65745;50.278;18.192;2023-06-10T00:27:18;99469.64;;;16.03;86.01
76794;BME280;65745;50.278;18.192;2023-06-10T00:29:50;99468.44;;;16.01;86.19
76794;BME280;65745;50.278;18.192;2023-06-10T00:32:22;99462.71;;;16.00;85.83
76794;BME280;65745;50.278;18.192;2023-06-10T00:34:55;99467.98;;;15.96;85.74
76794;BME280;65745;50.278;18.192;2023-06-10T00:37:27;99473.17;;;15.96;85.86
76794;BME280;65745;50.278;18.192;2023-06-10T00:39:59;99470.43;;;15.93;86.32
76794;BME280;65745;50.278;18.192;2023-06-10T00:42:31;99471.66;;;15.90;86.00
76794;BME280;65745;50.278;18.192;2023-06-10T00:45:04;99473.42;;;15.87;86.62
76794;BME280;65745;50.278;18.192;2023-06-10T00:47:39;99467.03;;;15.84;86.22
76794;BME280;65745;50.278;18.192;2023-06-10T00:50:12;99465.47;;;15.83;86.36
76794;BME280;65745;50.278;18.192;2023-06-10T00:52:44;99466.70;;;15.82;86.15
76794;BME280;65745;50.278;18.192;2023-06-10T00:55:19;99467.04;;;15.83;86.16
76794;BME280;65745;50.278;18.192;2023-06-10T00:57:52;99463.58;;;15.82;86.30
76794;BME280;65745;50.278;18.192;2023-06-10T01:00:25;99465.67;;;15.80;85.97
76794;BME280;65745;50.278;18.192;2023-06-10T01:02:57;99461.35;;;15.79;86.21
76794;BME280;65745;50.278;18.192;2023-06-10T01:05:30;99456.66;;;15.78;86.17
76794;BME280;65745;50.278;18.192;2023-06-10T01:08:06;99463.25;;;15.79;86.07
76794;BME280;65745;50.278;18.192;2023-06-10T01:10:43;99458.92;;;15.79;86.35
76794;BME280;65745;50.278;18.192;2023-06-10T01:13:20;99462.73;;;15.79;86.40
76794;BME280;65745;50.278;18.192;2023-06-10T01:15:55;99460.48;;;15.80;86.52
76794;BME280;65745;50.278;18.192;2023-06-10T01:18:32;99461.69;;;15.80;86.47
76794;BME280;65745;50.278;18.192;2023-06-10T01:21:05;99461.52;;;15.78;86.20
76794;BME280;65745;50.278;18.192;2023-06-10T01:23:38;99463.27;;;15.78;86.48
76794;BME280;65745;50.278;18.192;2023-06-10T01:26:12;99468.12;;;15.78;86.32
76794;BME280;65745;50.278;18.192;2023-06-10T01:28:49;99469.66;;;15.80;86.14
76794;BME280;65745;50.278;18.192;2023-06-10T01:31:31;99470.34;;;15.81;86.20
76794;BME280;65745;50.278;18.192;2023-06-10T01:34:12;99468.59;;;15.84;86.27
76794;BME280;65745;50.278;18.192;2023-06-10T01:36:48;99467.04;;;15.83;86.25
76794;BME280;65745;50.278;18.192;2023-06-10T01:39:22;99466.53;;;15.81;86.42
76794;BME280;65745;50.278;18.192;2023-06-10T01:41:55;99469.31;;;15.81;86.22
76794;BME280;65745;50.278;18.192;2023-06-10T01:44:28;99471.20;;;15.84;86.32
76794;BME280;65745;50.278;18.192;2023-06-10T01:47:00;99466.86;;;15.84;86.19
76794;BME280;65745;50.278;18.192;2023-06-10T01:49:33;99469.25;;;15.87;86.16
76794;BME280;65745;50.278;18.192;2023-06-10T01:52:07;99465.60;;;15.88;86.07
76794;BME280;65745;50.278;18.192;2023-06-10T01:54:39;99472.55;;;15.88;85.97
76794;BME280;65745;50.278;18.192;2023-06-10T01:57:11;99477.73;;;15.91;86.14
76794;BME280;65745;50.278;18.192;2023-06-10T01:59:43;99472.52;;;15.92;85.88
76794;BME280;65745;50.278;18.192;2023-06-10T02:02:18;99474.45;;;15.90;86.03
76794;BME280;65745;50.278;18.192;2023-06-10T02:04:53;99474.45;;;15.90;86.08
76794;BME280;65745;50.278;18.192;2023-06-10T02:07:26;99475.16;;;15.89;86.01
76794;BME280;65745;50.278;18.192;2023-06-10T02:09:58;99475.98;;;15.91;85.95
76794;BME280;65745;50.278;18.192;2023-06-10T02:12:32;99473.38;;;15.92;86.42
76794;BME280;65745;50.278;18.192;2023-06-10T02:15:05;99474.25;;;15.92;86.11
76794;BME280;65745;50.278;18.192;2023-06-10T02:17:37;99474.06;;;15.95;85.70
76794;BME280;65745;50.278;18.192;2023-06-10T02:20:11;99474.94;;;15.92;85.82
76794;BME280;65745;50.278;18.192;2023-06-10T02:22:44;99476.38;;;15.89;85.73
76794;BME280;65745;50.278;18.192;2023-06-10T02:25:16;99474.14;;;15.86;85.77
76794;BME280;65745;50.278;18.192;2023-06-10T02:27:48;99475.89;;;15.85;85.70
76794;BME280;65745;50.278;18.192;2023-06-10T02:30:21;99475.55;;;15.84;85.71
76794;BME280;65745;50.278;18.192;2023-06-10T02:32:53;99476.09;;;15.82;85.74
76794;BME280;65745;50.278;18.192;2023-06-10T02:35:28;99470.91;;;15.77;85.89
76794;BME280;65745;50.278;18.192;2023-06-10T02:38:00;99472.69;;;15.71;86.09
76794;BME280;65745;50.278;18.192;2023-06-10T02:40:33;99467.48;;;15.70;86.29
76794;BME280;65745;50.278;18.192;2023-06-10T02:43:05;99466.11;;;15.68;86.51
76794;BME280;65745;50.278;18.192;2023-06-10T02:45:38;99465.96;;;15.65;86.32
76794;BME280;65745;50.278;18.192;2023-06-10T02:48:11;99469.95;;;15.65;86.34
76794;BME280;65745;50.278;18.192;2023-06-10T02:50:43;99470.50;;;15.64;86.11
76794;BME280;65745;50.278;18.192;2023-06-10T02:53:27;99473.41;;;15.65;86.14
76794;BME280;65745;50.278;18.192;2023-06-10T02:56:05;99475.70;;;15.62;86.18
76794;BME280;65745;50.278;18.192;2023-06-10T02:58:37;99480.42;;;15.58;86.27
76794;BME280;65745;50.278;18.192;2023-06-10T03:01:09;99482.34;;;15.56;86.32
76794;BME280;65745;50.278;18.192;2023-06-10T03:03:51;99487.38;;;15.57;86.33
76794;BME280;65745;50.278;18.192;2023-06-10T03:06:23;99488.08;;;15.57;86.39
76794;BME280;65745;50.278;18.192;2023-06-10T03:09:01;99489.81;;;15.59;86.36
76794;BME280;65745;50.278;18.192;2023-06-10T03:11:35;99492.58;;;15.59;87.01
76794;BME280;65745;50.278;18.192;2023-06-10T03:14:07;99497.77;;;15.60;86.92
76794;BME280;65745;50.278;18.192;2023-06-10T03:16:40;99502.83;;;15.59;86.70
76794;BME280;65745;50.278;18.192;2023-06-10T03:19:13;99500.17;;;15.64;86.56
76794;BME280;65745;50.278;18.192;2023-06-10T03:21:57;99504.49;;;15.67;86.43
76794;BME280;65745;50.278;18.192;2023-06-10T03:24:30;99507.24;;;15.70;86.36
76794;BME280;65745;50.278;18.192;2023-06-10T03:27:02;99509.98;;;15.77;86.12
76794;BME280;65745;50.278;18.192;2023-06-10T03:29:37;99512.21;;;15.80;86.23
76794;BME280;65745;50.278;18.192;2023-06-10T03:32:10;99509.06;;;15.85;86.23
76794;BME280;65745;50.278;18.192;2023-06-10T03:34:43;99509.34;;;15.91;86.04
76794;BME280;65745;50.278;18.192;2023-06-10T03:37:16;99508.97;;;15.95;85.87
76794;BME280;65745;50.278;18.192;2023-06-10T03:39:50;99506.50;;;16.01;85.70
76794;BME280;65745;50.278;18.192;2023-06-10T03:42:22;99510.30;;;16.03;85.99
76794;BME280;65745;50.278;18.192;2023-06-10T03:44:55;99510.04;;;15.94;87.05
76794;BME280;65745;50.278;18.192;2023-06-10T03:47:29;99509.37;;;15.89;86.74
76794;BME280;65745;50.278;18.192;2023-06-10T03:50:07;99512.46;;;15.93;86.70
76794;BME280;65745;50.278;18.192;2023-06-10T03:52:40;99515.23;;;15.92;86.42
76794;BME280;65745;50.278;18.192;2023-06-10T03:55:12;99520.61;;;15.96;86.22
76794;BME280;65745;50.278;18.192;2023-06-10T03:57:47;99517.45;;;15.99;86.09
76794;BME280;65745;50.278;18.192;2023-06-10T04:00:20;99519.36;;;16.00;86.18
76794;BME280;65745;50.278;18.192;2023-06-10T04:02:53;99519.31;;;16.05;86.18
76794;BME280;65745;50.278;18.192;2023-06-10T04:05:35;99518.02;;;16.13;85.74
76794;BME280;65745;50.278;18.192;2023-06-10T04:08:08;99515.20;;;16.17;85.69
76794;BME280;65745;50.278;18.192;2023-06-10T04:10:40;99515.19;;;16.19;85.78
76794;BME280;65745;50.278;18.192;2023-06-10T04:13:13;99514.48;;;16.21;85.92
76794;BME280;65745;50.278;18.192;2023-06-10T04:15:52;99513.26;;;16.21;86.55
76794;BME280;65745;50.278;18.192;2023-06-10T04:18:25;99512.41;;;16.21;86.49
76794;BME280;65745;50.278;18.192;2023-06-10T04:20:59;99515.19;;;16.21;86.45
76794;BME280;65745;50.278;18.192;2023-06-10T04:23:33;99517.05;;;16.25;86.54
76794;BME280;65745;50.278;18.192;2023-06-10T04:26:05;99510.36;;;16.34;86.27
76794;BME280;65745;50.278;18.192;2023-06-10T04:28:38;99509.10;;;16.38;86.46
76794;BME280;65745;50.278;18.192;2023-06-10T04:31:10;99508.55;;;16.42;86.38
76794;BME280;65745;50.278;18.192;2023-06-10T04:33:42;99507.11;;;16.47;86.68
76794;BME280;65745;50.278;18.192;2023-06-10T04:36:15;99507.21;;;16.53;86.72
76794;BME280;65745;50.278;18.192;2023-06-10T04:38:47;99507.10;;;16.67;86.52
76794;BME280;65745;50.278;18.192;2023-06-10T04:41:19;99505.95;;;16.77;86.18
76794;BME280;65745;50.278;18.192;2023-06-10T04:43:53;99508.12;;;16.84;86.45
76794;BME280;65745;50.278;18.192;2023-06-10T04:46:26;99513.55;;;16.94;86.36
76794;BME280;65745;50.278;18.192;2023-06-10T04:48:58;99514.32;;;17.03;86.06
76794;BME280;65745;50.278;18.192;2023-06-10T04:51:30;99516.51;;;17.10;85.88
76794;BME280;65745;50.278;18.192;2023-06-10T04:54:04;99519.91;;;17.16;86.08
76794;BME280;65745;50.278;18.192;2023-06-10T04:56:36;99520.12;;;17.26;85.85
76794;BME280;65745;50.278;18.192;2023-06-10T04:59:10;99522.06;;;17.37;85.67
76794;BME280;65745;50.278;18.192;2023-06-10T05:01:42;99518.14;;;17.43;85.50
76794;BME280;65745;50.278;18.192;2023-06-10T05:04:14;99523.28;;;17.50;85.30
76794;BME280;65745;50.278;18.192;2023-06-10T05:06:46;99522.30;;;17.57;85.49
76794;BME280;65745;50.278;18.192;2023-06-10T05:09:19;99521.52;;;17.65;85.58
76794;BME280;65745;50.278;18.192;2023-06-10T05:11:51;99521.72;;;17.74;85.50
76794;BME280;65745;50.278;18.192;2023-06-10T05:14:24;99523.10;;;17.87;85.38
76794;BME280;65745;50.278;18.192;2023-06-10T05:16:56;99527.66;;;17.96;85.30
76794;BME280;65745;50.278;18.192;2023-06-10T05:19:29;99522.10;;;18.05;85.18
76794;BME280;65745;50.278;18.192;2023-06-10T05:22:01;99521.55;;;18.18;85.45
76794;BME280;65745;50.278;18.192;2023-06-10T05:24:33;99522.65;;;18.35;85.35
76794;BME280;65745;50.278;18.192;2023-06-10T05:27:06;99520.70;;;18.56;85.46
76794;BME280;65745;50.278;18.192;2023-06-10T05:29:39;99523.61;;;18.79;85.44
76794;BME280;65745;50.278;18.192;2023-06-10T05:32:11;99521.64;;;18.98;85.03
76794;BME280;65745;50.278;18.192;2023-06-10T05:34:44;99522.54;;;19.14;85.10
76794;BME280;65745;50.278;18.192;2023-06-10T05:37:16;99522.98;;;19.33;84.90
76794;BME280;65745;50.278;18.192;2023-06-10T05:39:48;99524.86;;;19.43;84.90
76794;BME280;65745;50.278;18.192;2023-06-10T05:42:21;99525.70;;;19.47;84.59
76794;BME280;65745;50.278;18.192;2023-06-10T05:44:53;99520.55;;;19.50;84.22
76794;BME280;65745;50.278;18.192;2023-06-10T05:47:25;99522.55;;;19.62;84.54
76794;BME280;65745;50.278;18.192;2023-06-10T05:49:57;99525.66;;;19.71;84.30
76794;BME280;65745;50.278;18.192;2023-06-10T05:52:29;99533.59;;;19.69;83.93
76794;BME280;65745;50.278;18.192;2023-06-10T05:55:02;99530.73;;;19.64;83.65
76794;BME280;65745;50.278;18.192;2023-06-10T05:57:35;99534.70;;;19.58;83.41
76794;BME280;65745;50.278;18.192;2023-06-10T06:00:09;99532.68;;;19.54;83.38
76794;BME280;65745;50.278;18.192;2023-06-10T06:02:45;99531.17;;;19.52;83.07
76794;BME280;65745;50.278;18.192;2023-06-10T06:05:17;99533.30;;;19.50;82.93
76794;BME280;65745;50.278;18.192;2023-06-10T06:07:50;99535.08;;;19.49;82.70
76794;BME280;65745;50.278;18.192;2023-06-10T06:10:22;99531.80;;;19.47;82.99
76794;BME280;65745;50.278;18.192;2023-06-10T06:12:54;99536.49;;;19.48;83.03
76794;BME280;65745;50.278;18.192;2023-06-10T06:15:26;99536.98;;;19.49;82.93
76794;BME280;65745;50.278;18.192;2023-06-10T06:17:59;99536.20;;;19.54;82.73
76794;BME280;65745;50.278;18.192;2023-06-10T06:20:31;99538.60;;;19.56;82.60
76794;BME280;65745;50.278;18.192;2023-06-10T06:23:04;99537.48;;;19.59;82.48
76794;BME280;65745;50.278;18.192;2023-06-10T06:25:36;99539.17;;;19.62;82.26
76794;BME280;65745;50.278;18.192;2023-06-10T06:28:11;99538.17;;;19.67;81.82
76794;BME280;65745;50.278;18.192;2023-06-10T06:30:44;99540.45;;;19.74;81.42
76794;BME280;65745;50.278;18.192;2023-06-10T06:33:16;99545.38;;;19.80;81.32
76794;BME280;65745;50.278;18.192;2023-06-10T06:35:48;99549.45;;;19.86;81.17
76794;BME280;65745;50.278;18.192;2023-06-10T06:38:20;99547.98;;;19.95;80.77
76794;BME280;65745;50.278;18.192;2023-06-10T06:40:53;99553.33;;;20.00;80.87
76794;BME280;65745;50.278;18.192;2023-06-10T06:43:26;99559.05;;;20.01;80.84
76794;BME280;65745;50.278;18.192;2023-06-10T06:46:27;99555.54;;;20.09;80.98
76794;BME280;65745;50.278;18.192;2023-06-10T06:49:00;99560.54;;;20.18;80.46
76794;BME280;65745;50.278;18.192;2023-06-10T06:51:33;99565.58;;;20.27;80.20
76794;BME280;65745;50.278;18.192;2023-06-10T06:54:06;99568.17;;;20.28;79.90
76794;BME280;65745;50.278;18.192;2023-06-10T06:56:38;99566.87;;;20.32;79.86
76794;BME280;65745;50.278;18.192;2023-06-10T06:59:11;99569.59;;;20.36;79.03
76794;BME280;65745;50.278;18.192;2023-06-10T07:01:44;99567.53;;;20.41;79.50
76794;BME280;65745;50.278;18.192;2023-06-10T07:04:17;99571.94;;;20.46;79.35
76794;BME280;65745;50.278;18.192;2023-06-10T07:06:50;99566.31;;;20.61;78.77
76794;BME280;65745;50.278;18.192;2023-06-10T07:09:23;99566.49;;;20.74;78.53
76794;BME280;65745;50.278;18.192;2023-06-10T07:11:55;99565.07;;;20.88;78.28
76794;BME280;65745;50.278;18.192;2023-06-10T07:14:27;99562.77;;;20.95;77.33
76794;BME280;65745;50.278;18.192;2023-06-10T07:17:00;99562.13;;;20.99;77.58
76794;BME280;65745;50.278;18.192;2023-06-10T07:19:32;99563.77;;;20.96;77.24
76794;BME280;65745;50.278;18.192;2023-06-10T07:22:05;99562.55;;;20.97;76.71
76794;BME280;65745;50.278;18.192;2023-06-10T07:24:38;99568.29;;;21.04;76.40
76794;BME280;65745;50.278;18.192;2023-06-10T07:27:10;99575.92;;;21.13;75.90
76794;BME280;65745;50.278;18.192;2023-06-10T07:29:42;99577.44;;;21.16;75.70
76794;BME280;65745;50.278;18.192;2023-06-10T07:32:14;99582.56;;;21.27;75.67
76794;BME280;65745;50.278;18.192;2023-06-10T07:34:49;99583.75;;;21.34;75.34
76794;BME280;65745;50.278;18.192;2023-06-10T07:37:21;99587.57;;;21.47;75.37
76794;BME280;65745;50.278;18.192;2023-06-10T07:39:53;99593.80;;;21.55;75.06
76794;BME280;65745;50.278;18.192;2023-06-10T07:42:26;99596.80;;;21.61;74.63
76794;BME280;65745;50.278;18.192;2023-06-10T07:44:58;99602.85;;;21.46;72.90
76794;BME280;65745;50.278;18.192;2023-06-10T07:47:32;99601.21;;;21.31;72.02
76794;BME280;65745;50.278;18.192;2023-06-10T07:50:06;99609.12;;;21.24;72.13
76794;BME280;65745;50.278;18.192;2023-06-10T07:52:39;99610.55;;;21.15;72.71
76794;BME280;65745;50.278;18.192;2023-06-10T07:55:11;99607.41;;;21.15;72.48
76794;BME280;65745;50.278;18.192;2023-06-10T07:57:44;99601.58;;;21.17;71.59
76794;BME280;65745;50.278;18.192;2023-06-10T08:00:17;99603.41;;;21.14;72.18
76794;BME280;65745;50.278;18.192;2023-06-10T08:02:50;99607.08;;;21.14;71.96
76794;BME280;65745;50.278;18.192;2023-06-10T08:05:23;99611.09;;;21.16;71.82
76794;BME280;65745;50.278;18.192;2023-06-10T08:07:55;99615.28;;;21.16;71.81
76794;BME280;65745;50.278;18.192;2023-06-10T08:10:27;99621.84;;;21.19;71.71
76794;BME280;65745;50.278;18.192;2023-06-10T08:13:01;99626.30;;;21.23;71.73
76794;BME280;65745;50.278;18.192;2023-06-10T08:15:34;99625.15;;;21.26;71.83
76794;BME280;65745;50.278;18.192;2023-06-10T08:18:06;99624.81;;;21.38;71.48
76794;BME280;65745;50.278;18.192;2023-06-10T08:20:38;99632.30;;;21.52;71.10
76794;BME280;65745;50.278;18.192;2023-06-10T08:23:11;99632.41;;;21.55;69.60
76794;BME280;65745;50.278;18.192;2023-06-10T08:25:43;99634.61;;;21.57;69.77
76794;BME280;65745;50.278;18.192;2023-06-10T08:28:16;99635.50;;;21.62;69.27
76794;BME280;65745;50.278;18.192;2023-06-10T08:30:48;99634.35;;;21.66;69.76
76794;BME280;65745;50.278;18.192;2023-06-10T08:33:20;99633.66;;;21.71;69.73
76794;BME280;65745;50.278;18.192;2023-06-10T08:35:53;99633.18;;;21.76;69.71
76794;BME280;65745;50.278;18.192;2023-06-10T08:38:25;99635.04;;;21.72;68.70
76794;BME280;65745;50.278;18.192;2023-06-10T08:41:00;99640.30;;;21.72;69.32
76794;BME280;65745;50.278;18.192;2023-06-10T08:43:37;99639.79;;;21.72;68.55
76794;BME280;65745;50.278;18.192;2023-06-10T08:46:11;99643.59;;;21.68;68.92
76794;BME280;65745;50.278;18.192;2023-06-10T08:48:49;99646.61;;;21.67;68.80
76794;BME280;65745;50.278;18.192;2023-06-10T08:51:27;99647.69;;;21.66;68.43
76794;BME280;65745;50.278;18.192;2023-06-10T08:54:04;99649.17;;;21.69;68.85
76794;BME280;65745;50.278;18.192;2023-06-10T08:56:40;99644.27;;;21.74;69.08
76794;BME280;65745;50.278;18.192;2023-06-10T08:59:13;99646.64;;;21.89;69.35
76794;BME280;65745;50.278;18.192;2023-06-10T09:01:47;99642.99;;;22.06;68.72
76794;BME280;65745;50.278;18.192;2023-06-10T09:04:21;99644.59;;;22.22;68.75
76794;BME280;65745;50.278;18.192;2023-06-10T09:06:54;99642.23;;;22.35;68.66
76794;BME280;65745;50.278;18.192;2023-06-10T09:09:29;99643.86;;;22.56;68.84
76794;BME280;65745;50.278;18.192;2023-06-10T09:12:02;99645.02;;;22.79;68.41
76794;BME280;65745;50.278;18.192;2023-06-10T09:14:34;99638.95;;;23.07;68.11
76794;BME280;65745;50.278;18.192;2023-06-10T09:17:08;99638.86;;;23.34;67.33
76794;BME280;65745;50.278;18.192;2023-06-10T09:19:42;99635.61;;;23.51;65.52
76794;BME280;65745;50.278;18.192;2023-06-10T09:22:17;99633.95;;;23.58;65.18
76794;BME280;65745;50.278;18.192;2023-06-10T09:24:50;99634.41;;;23.69;65.68
76794;BME280;65745;50.278;18.192;2023-06-10T09:27:23;99626.67;;;23.78;65.78
76794;BME280;65745;50.278;18.192;2023-06-10T09:29:56;99628.73;;;23.88;65.92
76794;BME280;65745;50.278;18.192;2023-06-10T09:32:29;99624.95;;;23.99;65.27
76794;BME280;65745;50.278;18.192;2023-06-10T09:35:10;99626.16;;;23.91;63.23
76794;BME280;65745;50.278;18.192;2023-06-10T09:37:45;99630.70;;;23.79;63.79
76794;BME280;65745;50.278;18.192;2023-06-10T09:40:18;99634.05;;;23.69;62.13
76794;BME280;65745;50.278;18.192;2023-06-10T09:42:54;99632.60;;;23.66;61.97
76794;BME280;65745;50.278;18.192;2023-06-10T09:45:31;99634.63;;;23.68;62.58
76794;BME280;65745;50.278;18.192;2023-06-10T09:48:04;99636.08;;;23.67;61.29
76794;BME280;65745;50.278;18.192;2023-06-10T09:50:43;99635.84;;;23.87;62.38
76794;BME280;65745;50.278;18.192;2023-06-10T09:53:16;99632.77;;;24.11;62.00
76794;BME280;65745;50.278;18.192;2023-06-10T09:55:50;99633.19;;;24.24;62.08
76794;BME280;65745;50.278;18.192;2023-06-10T09:58:37;99635.45;;;24.29;61.06
76794;BME280;65745;50.278;18.192;2023-06-10T10:01:10;99635.82;;;24.37;61.48
76794;BME280;65745;50.278;18.192;2023-06-10T10:03:47;99637.44;;;24.40;61.15
76794;BME280;65745;50.278;18.192;2023-06-10T10:06:20;99639.98;;;24.47;61.01
76794;BME280;65745;50.278;18.192;2023-06-10T10:08:53;99634.22;;;24.54;60.66
76794;BME280;65745;50.278;18.192;2023-06-10T10:11:26;99633.59;;;24.65;60.37
76794;BME280;65745;50.278;18.192;2023-06-10T10:13:59;99630.23;;;24.78;59.55
76794;BME280;65745;50.278;18.192;2023-06-10T10:16:35;99631.92;;;24.88;59.68
76794;BME280;65745;50.278;18.192;2023-06-10T10:19:15;99625.85;;;25.07;58.83
76794;BME280;65745;50.278;18.192;2023-06-10T10:21:53;99627.50;;;25.17;58.80
76794;BME280;65745;50.278;18.192;2023-06-10T10:24:32;99625.67;;;25.26;58.00
76794;BME280;65745;50.278;18.192;2023-06-10T10:27:11;99622.17;;;25.29;57.85
76794;BME280;65745;50.278;18.192;2023-06-10T10:29:48;99626.11;;;25.32;57.65
76794;BME280;65745;50.278;18.192;2023-06-10T10:32:29;99620.91;;;25.42;57.03
76794;BME280;65745;50.278;18.192;2023-06-10T10:35:11;99620.96;;;25.72;57.88
76794;BME280;65745;50.278;18.192;2023-06-10T10:37:45;99616.27;;;26.01;57.44
76794;BME280;65745;50.278;18.192;2023-06-10T10:40:18;99613.52;;;26.06;57.16
76794;BME280;65745;50.278;18.192;2023-06-10T10:42:52;99614.63;;;26.08;55.81
76794;BME280;65745;50.278;18.192;2023-06-10T10:45:28;99615.05;;;26.14;57.05
76794;BME280;65745;50.278;18.192;2023-06-10T10:48:07;99610.86;;;26.17;57.21
76794;BME280;65745;50.278;18.192;2023-06-10T10:50:43;99609.64;;;26.17;56.72
76794;BME280;65745;50.278;18.192;2023-06-10T10:53:21;99603.02;;;26.15;56.64
76794;BME280;65745;50.278;18.192;2023-06-10T10:56:02;99596.84;;;26.22;55.73
76794;BME280;65745;50.278;18.192;2023-06-10T10:58:36;99590.26;;;26.35;54.82
76794;BME280;65745;50.278;18.192;2023-06-10T11:01:13;99587.38;;;26.46;54.96
76794;BME280;65745;50.278;18.192;2023-06-10T11:03:46;99583.00;;;26.56;54.73
76794;BME280;65745;50.278;18.192;2023-06-10T11:06:19;99587.27;;;26.58;54.58
76794;BME280;65745;50.278;18.192;2023-06-10T11:08:52;99574.27;;;26.60;52.44
76794;BME280;65745;50.278;18.192;2023-06-10T11:11:27;99572.80;;;26.64;51.87
76794;BME280;65745;50.278;18.192;2023-06-10T11:14:08;99578.17;;;26.64;52.84
76794;BME280;65745;50.278;18.192;2023-06-10T11:16:42;99575.23;;;26.90;51.49
76794;BME280;65745;50.278;18.192;2023-06-10T11:19:35;99574.08;;;27.55;52.21
76794;BME280;65745;50.278;18.192;2023-06-10T11:22:15;99568.61;;;28.24;51.01
76794;BME280;65745;50.278;18.192;2023-06-10T11:24:51;99564.48;;;28.79;49.38
76794;BME280;65745;50.278;18.192;2023-06-10T11:27:24;99567.95;;;29.03;47.50
76794;BME280;65745;50.278;18.192;2023-06-10T11:30:27;99565.11;;;29.29;48.11
76794;BME280;65745;50.278;18.192;2023-06-10T11:33:06;99565.94;;;29.61;46.00
76794;BME280;65745;50.278;18.192;2023-06-10T11:35:42;99566.70;;;29.79;45.56
76794;BME280;65745;50.278;18.192;2023-06-10T11:38:15;99565.58;;;29.80;43.27
76794;BME280;65745;50.278;18.192;2023-06-10T11:40:49;99568.24;;;29.83;43.76
76794;BME280;65745;50.278;18.192;2023-06-10T11:43:22;99563.27;;;29.97;43.42
76794;BME280;65745;50.278;18.192;2023-06-10T11:45:57;99561.80;;;30.27;43.25
76794;BME280;65745;50.278;18.192;2023-06-10T11:48:30;99557.59;;;30.48;42.20
76794;BME280;65745;50.278;18.192;2023-06-10T11:51:08;99553.06;;;30.67;42.14
76794;BME280;65745;50.278;18.192;2023-06-10T11:53:40;99547.52;;;30.73;41.07
76794;BME280;65745;50.278;18.192;2023-06-10T11:56:21;99551.46;;;30.98;41.88
76794;BME280;65745;50.278;18.192;2023-06-10T11:58:58;99545.24;;;31.23;41.19
76794;BME280;65745;50.278;18.192;2023-06-10T12:01:35;99540.27;;;31.53;41.73
76794;BME280;65745;50.278;18.192;2023-06-10T12:04:14;99535.51;;;31.57;41.02
76794;BME280;65745;50.278;18.192;2023-06-10T12:06:51;99535.61;;;31.44;39.89
76794;BME280;65745;50.278;18.192;2023-06-10T12:09:25;99534.11;;;31.47;40.89
76794;BME280;65745;50.278;18.192;2023-06-10T12:12:00;99534.73;;;31.58;41.18
76794;BME280;65745;50.278;18.192;2023-06-10T12:14:54;99530.63;;;31.81;40.28
76794;BME280;65745;50.278;18.192;2023-06-10T12:17:38;99520.77;;;32.12;40.25
76794;BME280;65745;50.278;18.192;2023-06-10T12:20:26;99524.86;;;32.31;39.52
76794;BME280;65745;50.278;18.192;2023-06-10T12:23:00;99521.69;;;32.57;39.11
76794;BME280;65745;50.278;18.192;2023-06-10T12:25:32;99524.11;;;32.88;38.56
76794;BME280;65745;50.278;18.192;2023-06-10T12:28:05;99525.86;;;33.24;39.16
76794;BME280;65745;50.278;18.192;2023-06-10T12:30:37;99525.75;;;33.28;39.21
76794;BME280;65745;50.278;18.192;2023-06-10T12:33:18;99524.45;;;33.48;37.32
76794;BME280;65745;50.278;18.192;2023-06-10T12:35:53;99526.36;;;33.53;36.52
76794;BME280;65745;50.278;18.192;2023-06-10T12:38:27;99522.52;;;33.21;36.74
76794;BME280;65745;50.278;18.192;2023-06-10T12:41:04;99525.39;;;33.14;37.95
76794;BME280;65745;50.278;18.192;2023-06-10T12:43:37;99527.27;;;32.77;38.31
76794;BME280;65745;50.278;18.192;2023-06-10T12:46:12;99527.79;;;32.28;38.20
76794;BME280;65745;50.278;18.192;2023-06-10T12:48:52;99531.88;;;31.92;38.71
76794;BME280;65745;50.278;18.192;2023-06-10T12:51:25;99525.91;;;31.49;38.21
76794;BME280;65745;50.278;18.192;2023-06-10T12:53:58;99520.36;;;31.08;38.57
76794;BME280;65745;50.278;18.192;2023-06-10T12:56:30;99516.09;;;31.08;39.34
76794;BME280;65745;50.278;18.192;2023-06-10T12:59:02;99521.59;;;30.96;39.24
76794;BME280;65745;50.278;18.192;2023-06-10T13:01:35;99532.09;;;30.41;39.15
76794;BME280;65745;50.278;18.192;2023-06-10T13:04:08;99547.29;;;29.64;41.22
76794;BME280;65745;50.278;18.192;2023-06-10T13:06:40;99553.42;;;28.76;44.86
76794;BME280;65745;50.278;18.192;2023-06-10T13:09:12;99554.95;;;27.93;46.64
76794;BME280;65745;50.278;18.192;2023-06-10T13:11:46;99551.62;;;27.15;48.67
76794;BME280;65745;50.278;18.192;2023-06-10T13:14:18;99552.55;;;26.43;50.23
76794;BME280;65745;50.278;18.192;2023-06-10T13:16:51;99567.02;;;25.78;51.39
76794;BME280;65745;50.278;18.192;2023-06-10T13:19:26;99565.15;;;25.15;54.13
76794;BME280;65745;50.278;18.192;2023-06-10T13:21:58;99561.90;;;24.40;55.71
76794;BME280;65745;50.278;18.192;2023-06-10T13:24:31;99566.55;;;23.95;57.58
76794;BME280;65745;50.278;18.192;2023-06-10T13:27:03;99575.66;;;23.64;57.70